createdAt,value
2024-03-05T00:00:17.914Z,109.63
2024-03-05T00:04:26.462Z,114.30
2024-03-05T00:08:29.881Z,116.95
2024-03-05T00:12:33.750Z,106.22
2024-03-05T00:16:38.405Z,115.03
2024-03-05T00:20:45.896Z,112.82
2024-03-05T00:24:49.184Z,111.22
2024-03-05T00:28:52.595Z,116.97
2024-03-05T00:32:57.254Z,114.43
2024-03-05T00:37:06.018Z,116.10
2024-03-05T00:41:09.261Z,110.65
2024-03-05T00:45:13.694Z,133.40
2024-03-05T00:49:19.276Z,130.02
2024-03-05T00:59:49.646Z,125.05
2024-03-05T01:03:53.405Z,129.15
2024-03-05T01:07:58.222Z,130.15
2024-03-05T01:12:02.295Z,134.90
2024-03-05T01:16:06.537Z,141.27
2024-03-05T01:20:16.991Z,136.38
2024-03-05T01:24:22.880Z,148.13
2024-03-05T01:28:31.170Z,140.50
2024-03-05T01:32:35.700Z,141.88
2024-03-05T01:36:39.591Z,144.40
2024-03-05T01:40:44.699Z,152.15
2024-03-05T01:45:14.665Z,152.80
2024-03-05T01:49:19.148Z,151.15
2024-03-05T01:53:22.443Z,219.70
2024-03-05T01:57:32.556Z,154.88
2024-03-05T02:01:36.653Z,157.20
2024-03-05T02:05:43.555Z,171.13
2024-03-05T02:09:47.090Z,207.13
2024-03-05T02:13:51.849Z,150.55
2024-03-05T02:17:55.927Z,164.63
2024-03-05T02:22:03.606Z,162.65
2024-03-05T02:26:07.991Z,155.48
2024-03-05T02:30:12.496Z,156.27
2024-03-05T02:34:16.070Z,147.38
2024-03-05T02:38:46.018Z,139.98
2024-03-05T02:42:49.317Z,128.80
2024-03-05T02:46:52.905Z,136.97
2024-03-05T02:50:56.428Z,152.55
2024-03-05T02:55:31.798Z,139.43
2024-03-05T02:59:35.225Z,171.27
2024-03-05T03:03:38.860Z,160.85
2024-03-05T03:07:42.200Z,176.88
2024-03-05T03:11:49.736Z,172.05
2024-03-05T03:15:53.044Z,159.30
2024-03-05T03:19:56.410Z,155.88
2024-03-05T03:23:59.722Z,160.77
2024-03-05T03:28:35.907Z,149.98
2024-03-05T03:32:39.244Z,148.55
2024-03-05T03:36:43.981Z,154.13
2024-03-05T03:40:47.293Z,157.10
2024-03-05T03:44:52.277Z,150.35
2024-03-05T03:48:56.538Z,136.25
2024-03-05T03:52:59.819Z,145.48
2024-03-05T03:57:03.402Z,135.52
2024-03-05T04:01:08.756Z,136.43
2024-03-05T04:05:12.621Z,146.40
2024-03-05T04:09:21.886Z,140.15
2024-03-05T04:13:25.252Z,135.40
2024-03-05T04:17:29.964Z,133.85
2024-03-05T04:21:33.197Z,146.00
2024-03-05T04:26:09.688Z,149.70
2024-03-05T04:30:14.582Z,144.48
2024-03-05T04:34:20.560Z,143.75
2024-03-05T04:38:24.033Z,154.52
2024-03-05T04:42:57.008Z,161.02
2024-03-05T04:47:00.441Z,149.52
2024-03-05T04:51:05.156Z,170.52
2024-03-05T04:55:09.530Z,181.80
2024-03-05T04:59:12.852Z,163.48
2024-03-05T05:03:16.108Z,158.98
2024-03-05T05:07:24.365Z,199.60
2024-03-05T05:11:27.805Z,158.30
2024-03-05T05:15:34.954Z,181.18
2024-03-05T05:19:38.259Z,174.45
2024-03-05T05:23:42.894Z,163.65
2024-03-05T05:27:46.141Z,156.98
2024-03-05T05:31:49.455Z,164.07
2024-03-05T05:35:53.009Z,166.57
2024-03-05T05:39:58.271Z,166.13
2024-03-05T05:44:01.773Z,173.85
2024-03-05T05:48:05.795Z,174.00
2024-03-05T05:52:10.194Z,163.43
2024-03-05T05:56:17.205Z,185.13
2024-03-05T06:00:34.965Z,188.73
2024-03-05T06:04:38.854Z,196.30
2024-03-05T06:08:42.131Z,212.38
2024-03-05T06:12:47.322Z,195.40
2024-03-05T06:16:50.823Z,196.68
2024-03-05T06:20:54.178Z,203.23
2024-03-05T06:24:59.577Z,239.68
2024-03-05T06:29:07.817Z,221.32
2024-03-05T06:33:13.929Z,183.60
2024-03-05T06:37:17.444Z,210.43
2024-03-05T06:41:20.823Z,259.00
2024-03-05T06:45:29.016Z,204.50
2024-03-05T06:49:39.535Z,181.00
2024-03-05T06:54:26.263Z,236.65
2024-03-05T06:58:29.554Z,227.38
2024-03-05T07:02:34.665Z,242.73
2024-03-05T07:06:37.945Z,195.77
2024-03-05T07:11:32.197Z,134.55
2024-03-05T07:15:35.502Z,78.95
2024-03-05T07:19:40.175Z,64.40
2024-03-05T07:23:45.318Z,64.80
2024-03-05T07:27:49.569Z,65.28
2024-03-05T07:31:52.849Z,53.30
2024-03-05T07:35:57.946Z,51.05
2024-03-05T07:40:10.495Z,60.53
2024-03-05T07:44:13.775Z,57.35
2024-03-05T07:48:17.321Z,59.72
2024-03-05T07:52:22.164Z,62.13
2024-03-05T07:56:25.558Z,49.58
2024-03-05T08:00:28.874Z,39.92
2024-03-05T08:04:32.169Z,39.40
2024-03-05T08:08:36.892Z,28.58
2024-03-05T08:12:43.309Z,21.58
2024-03-05T08:16:46.633Z,25.48
2024-03-05T08:20:53.842Z,23.27
2024-03-05T08:24:58.514Z,21.83
2024-03-05T08:29:02.345Z,21.55
2024-03-05T08:33:06.520Z,27.48
2024-03-05T08:38:04.456Z,24.20
2024-03-05T08:42:09.170Z,29.20
2024-03-05T08:46:12.650Z,27.05
2024-03-05T08:50:16.875Z,27.30
2024-03-05T08:54:20.319Z,25.77
2024-03-05T08:58:30.385Z,28.63
2024-03-05T09:02:33.780Z,25.40
2024-03-05T09:06:37.092Z,26.35
2024-03-05T09:10:41.117Z,29.55
2024-03-05T09:14:49.315Z,25.27
2024-03-05T09:18:52.565Z,27.10
2024-03-05T09:22:56.105Z,30.20
2024-03-05T09:27:00.466Z,25.98
2024-03-05T09:31:05.696Z,31.50
2024-03-05T09:35:16.920Z,29.42
2024-03-05T09:39:21.979Z,31.95
2024-03-05T09:43:27.888Z,27.88
2024-03-05T09:48:01.872Z,25.98
2024-03-05T09:52:06.110Z,32.03
2024-03-05T09:56:09.913Z,33.73
2024-03-05T10:00:19.130Z,29.77
2024-03-05T10:04:50.508Z,31.73
2024-03-05T10:08:55.282Z,31.67
2024-03-05T10:12:58.546Z,27.73
2024-03-05T10:17:03.380Z,30.92
2024-03-05T10:21:20.052Z,32.60
2024-03-05T10:25:25.167Z,30.88
2024-03-05T10:29:36.083Z,32.50
2024-03-05T10:33:39.351Z,33.80
2024-03-05T10:37:44.082Z,33.67
2024-03-05T10:41:54.936Z,34.13
2024-03-05T10:45:58.300Z,38.13
2024-03-05T10:50:01.957Z,34.00
2024-03-05T10:54:10.666Z,34.83
2024-03-05T10:58:59.222Z,35.60
2024-03-05T11:03:08.796Z,33.80
2024-03-05T11:07:13.656Z,39.17
2024-03-05T11:12:32.039Z,38.70
2024-03-05T11:16:38.722Z,36.60
2024-03-05T11:21:08.555Z,37.93
2024-03-05T11:25:32.490Z,39.63
2024-03-05T11:30:01.806Z,46.00
2024-03-05T11:34:15.012Z,44.88
2024-03-05T11:38:20.353Z,46.63
2024-03-05T11:42:24.581Z,45.20
2024-03-05T11:46:56.011Z,39.30
2024-03-05T11:51:04.915Z,42.40
2024-03-05T11:55:10.794Z,40.03
2024-03-05T11:59:16.329Z,48.00
2024-03-05T12:03:20.854Z,36.93
2024-03-05T12:07:26.983Z,36.33
2024-03-05T12:11:30.310Z,39.40
2024-03-05T12:15:36.351Z,41.38
2024-03-05T12:19:39.631Z,37.75
2024-03-05T12:23:46.633Z,35.70
2024-03-05T12:27:50.622Z,41.65
2024-03-05T12:31:53.980Z,42.85
2024-03-05T12:35:59.484Z,40.05
2024-03-05T12:40:08.931Z,40.47
2024-03-05T12:44:12.420Z,37.55
2024-03-05T12:48:15.776Z,48.38
2024-03-05T12:52:21.406Z,42.33
2024-03-05T12:56:27.265Z,36.80
2024-03-05T13:00:35.585Z,44.95
2024-03-05T13:04:38.900Z,40.42
2024-03-05T13:08:42.757Z,43.78
2024-03-05T13:12:47.446Z,41.22
2024-03-05T13:16:50.962Z,47.83
2024-03-05T13:20:57.181Z,41.97
2024-03-05T13:25:01.068Z,34.35
2024-03-05T13:29:05.766Z,38.15
2024-03-05T13:33:10.643Z,34.83
2024-03-05T13:37:13.908Z,36.35
2024-03-05T13:41:21.264Z,38.03
2024-03-05T13:45:31.610Z,35.03
2024-03-05T13:49:36.029Z,35.20
2024-03-05T13:53:44.322Z,41.27
2024-03-05T13:57:50.177Z,33.45
2024-03-05T14:01:57.015Z,32.05
2024-03-05T14:06:00.593Z,37.90
2024-03-05T14:10:05.295Z,31.57
2024-03-05T14:14:08.878Z,29.17
2024-03-05T14:18:18.439Z,33.83
2024-03-05T14:22:21.865Z,30.00
2024-03-05T14:26:28.825Z,28.70
2024-03-05T14:30:32.839Z,35.53
2024-03-05T14:34:37.601Z,30.50
2024-03-05T14:38:41.331Z,37.90
2024-03-05T14:42:45.153Z,34.67
2024-03-05T14:46:49.807Z,35.38
2024-03-05T14:50:54.823Z,30.77
2024-03-05T14:55:00.171Z,32.05
2024-03-05T14:59:08.024Z,28.07
2024-03-05T15:03:11.400Z,27.10
2024-03-05T15:07:19.638Z,34.92
2024-03-05T15:11:26.959Z,33.80
2024-03-05T15:15:32.282Z,31.35
2024-03-05T15:19:36.086Z,37.03
2024-03-05T15:23:40.708Z,34.88
2024-03-05T15:28:12.493Z,32.13
2024-03-05T15:32:20.015Z,30.42
2024-03-05T15:36:48.474Z,30.87
2024-03-05T15:40:55.172Z,33.13
2024-03-05T15:44:58.434Z,33.80
2024-03-05T15:49:06.803Z,36.05
2024-03-05T15:53:10.162Z,33.95
2024-03-05T15:57:20.996Z,34.00
2024-03-05T16:01:27.070Z,31.40
2024-03-05T16:05:39.466Z,31.65
2024-03-05T16:09:51.580Z,29.43
2024-03-05T16:14:01.117Z,28.80
2024-03-05T16:18:07.720Z,31.07
2024-03-05T16:22:11.350Z,30.40
2024-03-05T16:26:16.969Z,29.27
2024-03-05T16:30:26.253Z,27.98
2024-03-05T16:34:32.739Z,28.97
2024-03-05T16:38:37.177Z,27.45
2024-03-05T16:42:42.667Z,27.60
2024-03-05T16:46:47.826Z,27.27
2024-03-05T16:50:51.250Z,29.33
2024-03-05T16:55:00.376Z,29.50
2024-03-05T16:59:06.035Z,27.70
2024-03-05T17:03:12.789Z,31.80
2024-03-05T17:07:16.300Z,26.02
2024-03-05T17:11:21.694Z,29.37
2024-03-05T17:15:30.938Z,25.13
2024-03-05T17:19:35.596Z,32.83
2024-03-05T17:23:43.597Z,23.10
2024-03-05T17:27:47.987Z,29.20
2024-03-05T17:31:51.318Z,31.00
2024-03-05T17:35:58.429Z,32.53
2024-03-05T17:40:02.333Z,28.38
2024-03-05T17:44:10.316Z,26.45
2024-03-05T17:48:14.000Z,29.70
2024-03-05T17:52:19.252Z,28.35
2024-03-05T17:56:22.548Z,28.53
2024-03-05T18:00:28.841Z,27.07
2024-03-05T18:04:33.445Z,26.35
2024-03-05T18:08:38.098Z,27.27
2024-03-05T18:12:42.608Z,25.75
2024-03-05T18:16:45.974Z,20.85
2024-03-05T18:20:50.245Z,25.23
2024-03-05T18:24:55.585Z,25.33
2024-03-05T18:29:04.680Z,27.38
2024-03-05T18:33:09.468Z,23.40
2024-03-05T18:37:13.438Z,24.92
2024-03-05T18:41:43.965Z,28.83
2024-03-05T18:45:47.225Z,23.33
2024-03-05T18:49:51.831Z,32.63
2024-03-05T18:53:56.102Z,24.93
2024-03-05T18:58:00.778Z,24.65
2024-03-05T19:02:04.145Z,24.27
2024-03-05T19:06:08.077Z,28.63
2024-03-05T19:10:13.507Z,22.98
2024-03-05T19:14:18.777Z,26.55
2024-03-05T19:18:22.620Z,26.27
2024-03-05T19:23:17.547Z,28.30
2024-03-05T19:27:20.910Z,29.33
2024-03-05T19:31:25.693Z,28.13
2024-03-05T19:35:30.008Z,23.65
2024-03-05T19:39:33.294Z,27.70
2024-03-05T19:43:38.109Z,25.23
2024-03-05T19:48:10.383Z,27.35
2024-03-05T19:52:13.949Z,23.00
2024-03-05T19:56:22.711Z,23.98
2024-03-05T20:00:52.440Z,30.30
2024-03-05T20:04:57.229Z,28.70
2024-03-05T20:09:00.896Z,25.50
2024-03-05T20:13:05.392Z,25.88
2024-03-05T20:17:09.788Z,27.20
2024-03-05T20:21:15.912Z,30.05
2024-03-05T20:25:22.794Z,28.30
2024-03-05T20:29:28.480Z,26.90
2024-03-05T20:33:33.335Z,26.33
2024-03-05T20:37:38.162Z,23.33
2024-03-05T20:41:44.209Z,26.55
2024-03-05T20:45:47.496Z,25.50
2024-03-05T20:49:50.792Z,26.95
2024-03-05T20:53:57.902Z,26.85
2024-03-05T20:58:01.455Z,35.10
2024-03-05T21:02:10.637Z,27.77
2024-03-05T21:06:44.183Z,25.70
2024-03-05T21:10:48.997Z,30.23
2024-03-05T21:15:18.288Z,25.05
2024-03-05T21:19:46.440Z,29.92
2024-03-05T21:23:55.778Z,28.17
2024-03-05T21:28:03.974Z,24.23
2024-03-05T21:32:08.085Z,23.10
2024-03-05T21:36:11.523Z,24.10
2024-03-05T21:40:16.143Z,22.35
2024-03-05T21:44:45.625Z,18.10
2024-03-05T21:48:50.959Z,18.63
2024-03-05T21:52:56.309Z,18.13
2024-03-05T21:57:04.770Z,15.43
2024-03-05T22:01:12.593Z,15.37
2024-03-05T22:05:18.655Z,16.23
2024-03-05T22:09:22.032Z,13.38
2024-03-05T22:13:27.757Z,13.27
2024-03-05T22:17:36.514Z,13.47
2024-03-05T22:21:40.413Z,9.57
2024-03-05T22:25:47.573Z,13.17
2024-03-05T22:29:51.660Z,12.80
2024-03-05T22:33:56.508Z,12.97
2024-03-05T22:38:00.694Z,12.03
2024-03-05T22:42:05.853Z,11.73
2024-03-05T22:46:09.580Z,18.27
2024-03-05T22:50:14.970Z,14.23
2024-03-05T22:54:18.828Z,20.17
2024-03-05T22:58:23.421Z,13.87
2024-03-05T23:02:27.609Z,15.13
2024-03-05T23:06:33.178Z,13.03
2024-03-05T23:10:38.712Z,17.70
2024-03-05T23:14:44.123Z,11.65
2024-03-05T23:18:48.442Z,14.40
2024-03-05T23:22:53.644Z,16.53
2024-03-05T23:26:57.201Z,16.67
2024-03-05T23:31:00.661Z,15.27
2024-03-05T23:35:04.173Z,14.80
2024-03-05T23:39:11.114Z,17.10
2024-03-05T23:43:14.413Z,17.87
2024-03-05T23:47:17.739Z,15.90
2024-03-05T23:51:24.969Z,13.70
2024-03-05T23:55:29.950Z,13.23
2024-03-05T23:59:34.345Z,17.10
